sensor_id;sensor_type;location;lat;lon;timestamp;P1;durP1;ratioP1;P2;durP2;ratioP2
51824;SDS011;37879;52.986;6.282;2023-07-30T00:01:32;11.10;;;4.40;;
51824;SDS011;37879;52.986;6.282;2023-07-30T00:03:58;15.63;;;5.78;;
51824;SDS011;37879;52.986;6.282;2023-07-30T00:06:24;12.93;;;5.03;;
51824;SDS011;37879;52.986;6.282;2023-07-30T00:08:49;10.18;;;4.32;;
51824;SDS011;37879;52.986;6.282;2023-07-30T00:11:15;16.05;;;5.63;;
51824;SDS011;37879;52.986;6.282;2023-07-30T00:13:41;9.98;;;4.13;;
51824;SDS011;37879;52.986;6.282;2023-07-30T00:16:07;8.30;;;4.47;;
51824;SDS011;37879;52.986;6.282;2023-07-30T00:18:33;8.35;;;3.55;;
51824;SDS011;37879;52.986;6.282;2023-07-30T00:20:59;11.63;;;4.10;;
51824;SDS011;37879;52.986;6.282;2023-07-30T00:23:24;13.93;;;4.35;;
51824;SDS011;37879;52.986;6.282;2023-07-30T00:25:50;10.95;;;4.13;;
51824;SDS011;37879;52.986;6.282;2023-07-30T00:28:16;9.32;;;3.67;;
51824;SDS011;37879;52.986;6.282;2023-07-30T00:30:41;11.45;;;3.95;;
51824;SDS011;37879;52.986;6.282;2023-07-30T00:33:07;8.25;;;3.15;;
51824;SDS011;37879;52.986;6.282;2023-07-30T00:35:33;8.85;;;3.97;;
51824;SDS011;37879;52.986;6.282;2023-07-30T00:37:58;12.48;;;4.78;;
51824;SDS011;37879;52.986;6.282;2023-07-30T00:40:24;12.13;;;4.72;;
51824;SDS011;37879;52.986;6.282;2023-07-30T00:42:49;13.05;;;4.05;;
51824;SDS011;37879;52.986;6.282;2023-07-30T00:45:15;9.30;;;4.15;;
51824;SDS011;37879;52.986;6.282;2023-07-30T00:47:41;11.32;;;4.28;;
51824;SDS011;37879;52.986;6.282;2023-07-30T00:50:07;11.23;;;4.82;;
51824;SDS011;37879;52.986;6.282;2023-07-30T00:52:35;11.80;;;3.90;;
51824;SDS011;37879;52.986;6.282;2023-07-30T00:55:02;11.05;;;4.15;;
51824;SDS011;37879;52.986;6.282;2023-07-30T00:57:28;9.90;;;4.72;;
51824;SDS011;37879;52.986;6.282;2023-07-30T00:59:55;10.25;;;4.43;;
51824;SDS011;37879;52.986;6.282;2023-07-30T01:02:21;13.27;;;5.22;;
51824;SDS011;37879;52.986;6.282;2023-07-30T01:04:47;12.82;;;5.20;;
51824;SDS011;37879;52.986;6.282;2023-07-30T01:07:13;14.35;;;4.88;;
51824;SDS011;37879;52.986;6.282;2023-07-30T01:09:38;15.10;;;5.35;;
51824;SDS011;37879;52.986;6.282;2023-07-30T01:12:05;14.90;;;5.45;;
51824;SDS011;37879;52.986;6.282;2023-07-30T01:14:32;17.73;;;5.25;;
51824;SDS011;37879;52.986;6.282;2023-07-30T01:16:58;15.27;;;5.35;;
51824;SDS011;37879;52.986;6.282;2023-07-30T01:19:24;16.80;;;5.03;;
51824;SDS011;37879;52.986;6.282;2023-07-30T01:21:49;12.75;;;5.03;;
51824;SDS011;37879;52.986;6.282;2023-07-30T01:24:15;11.85;;;4.10;;
51824;SDS011;37879;52.986;6.282;2023-07-30T01:26:44;18.67;;;6.00;;
51824;SDS011;37879;52.986;6.282;2023-07-30T01:29:24;15.88;;;5.07;;
51824;SDS011;37879;52.986;6.282;2023-07-30T01:31:56;22.80;;;5.50;;
51824;SDS011;37879;52.986;6.282;2023-07-30T01:34:27;14.30;;;4.32;;
51824;SDS011;37879;52.986;6.282;2023-07-30T01:36:54;15.73;;;4.70;;
51824;SDS011;37879;52.986;6.282;2023-07-30T01:39:21;20.40;;;5.72;;
51824;SDS011;37879;52.986;6.282;2023-07-30T01:41:47;13.85;;;5.72;;
51824;SDS011;37879;52.986;6.282;2023-07-30T01:44:12;12.25;;;4.35;;
51824;SDS011;37879;52.986;6.282;2023-07-30T01:46:38;10.85;;;4.72;;
51824;SDS011;37879;52.986;6.282;2023-07-30T01:49:03;31.38;;;5.63;;
51824;SDS011;37879;52.986;6.282;2023-07-30T01:51:29;9.93;;;4.70;;
51824;SDS011;37879;52.986;6.282;2023-07-30T01:53:54;13.30;;;5.43;;
51824;SDS011;37879;52.986;6.282;2023-07-30T01:56:20;13.20;;;4.72;;
51824;SDS011;37879;52.986;6.282;2023-07-30T01:58:46;11.90;;;4.70;;
51824;SDS011;37879;52.986;6.282;2023-07-30T02:01:11;11.15;;;4.15;;
51824;SDS011;37879;52.986;6.282;2023-07-30T02:03:37;11.60;;;4.50;;
51824;SDS011;37879;52.986;6.282;2023-07-30T02:06:03;11.85;;;4.40;;
51824;SDS011;37879;52.986;6.282;2023-07-30T02:08:28;10.73;;;4.22;;
51824;SDS011;37879;52.986;6.282;2023-07-30T02:10:55;12.93;;;4.45;;
51824;SDS011;37879;52.986;6.282;2023-07-30T02:13:24;15.70;;;4.03;;
51824;SDS011;37879;52.986;6.282;2023-07-30T02:15:50;20.48;;;6.72;;
51824;SDS011;37879;52.986;6.282;2023-07-30T02:18:16;15.45;;;3.95;;
51824;SDS011;37879;52.986;6.282;2023-07-30T02:20:42;12.57;;;4.18;;
51824;SDS011;37879;52.986;6.282;2023-07-30T02:23:08;17.17;;;4.50;;
51824;SDS011;37879;52.986;6.282;2023-07-30T02:25:33;16.63;;;5.18;;
51824;SDS011;37879;52.986;6.282;2023-07-30T02:28:00;13.63;;;3.95;;
51824;SDS011;37879;52.986;6.282;2023-07-30T02:30:26;15.25;;;4.60;;
51824;SDS011;37879;52.986;6.282;2023-07-30T02:32:52;17.85;;;4.72;;
51824;SDS011;37879;52.986;6.282;2023-07-30T02:35:18;12.32;;;4.30;;
51824;SDS011;37879;52.986;6.282;2023-07-30T02:37:44;12.93;;;4.22;;
51824;SDS011;37879;52.986;6.282;2023-07-30T02:40:09;15.23;;;3.97;;
51824;SDS011;37879;52.986;6.282;2023-07-30T02:42:35;14.60;;;5.43;;
51824;SDS011;37879;52.986;6.282;2023-07-30T02:45:01;19.92;;;4.57;;
51824;SDS011;37879;52.986;6.282;2023-07-30T02:47:28;13.70;;;4.10;;
51824;SDS011;37879;52.986;6.282;2023-07-30T02:49:54;8.93;;;3.55;;
51824;SDS011;37879;52.986;6.282;2023-07-30T02:52:19;12.38;;;4.63;;
51824;SDS011;37879;52.986;6.282;2023-07-30T02:54:45;12.23;;;3.80;;
51824;SDS011;37879;52.986;6.282;2023-07-30T02:57:10;14.73;;;4.32;;
51824;SDS011;37879;52.986;6.282;2023-07-30T02:59:37;10.52;;;3.60;;
51824;SDS011;37879;52.986;6.282;2023-07-30T03:02:03;12.07;;;4.00;;
51824;SDS011;37879;52.986;6.282;2023-07-30T03:04:32;12.50;;;5.05;;
51824;SDS011;37879;52.986;6.282;2023-07-30T03:06:58;13.77;;;4.82;;
51824;SDS011;37879;52.986;6.282;2023-07-30T03:09:24;12.68;;;4.18;;
51824;SDS011;37879;52.986;6.282;2023-07-30T03:11:49;16.73;;;4.35;;
51824;SDS011;37879;52.986;6.282;2023-07-30T03:14:15;12.45;;;4.05;;
51824;SDS011;37879;52.986;6.282;2023-07-30T03:16:41;15.63;;;5.28;;
51824;SDS011;37879;52.986;6.282;2023-07-30T03:19:07;15.23;;;4.18;;
51824;SDS011;37879;52.986;6.282;2023-07-30T03:21:32;14.90;;;5.07;;
51824;SDS011;37879;52.986;6.282;2023-07-30T03:23:58;13.55;;;4.10;;
51824;SDS011;37879;52.986;6.282;2023-07-30T03:26:23;11.48;;;3.67;;
51824;SDS011;37879;52.986;6.282;2023-07-30T03:28:49;17.35;;;5.18;;
51824;SDS011;37879;52.986;6.282;2023-07-30T03:31:15;17.13;;;4.88;;
51824;SDS011;37879;52.986;6.282;2023-07-30T03:33:40;15.60;;;4.07;;
51824;SDS011;37879;52.986;6.282;2023-07-30T03:36:12;12.52;;;5.00;;
51824;SDS011;37879;52.986;6.282;2023-07-30T03:38:38;10.85;;;3.67;;
51824;SDS011;37879;52.986;6.282;2023-07-30T03:41:05;8.57;;;3.33;;
51824;SDS011;37879;52.986;6.282;2023-07-30T03:43:31;14.68;;;4.95;;
51824;SDS011;37879;52.986;6.282;2023-07-30T03:45:57;13.25;;;4.50;;
51824;SDS011;37879;52.986;6.282;2023-07-30T03:48:23;14.90;;;4.35;;
51824;SDS011;37879;52.986;6.282;2023-07-30T03:50:48;16.15;;;5.13;;
51824;SDS011;37879;52.986;6.282;2023-07-30T03:53:14;12.95;;;5.20;;
51824;SDS011;37879;52.986;6.282;2023-07-30T03:55:40;8.98;;;3.65;;
51824;SDS011;37879;52.986;6.282;2023-07-30T03:58:06;16.10;;;3.78;;
51824;SDS011;37879;52.986;6.282;2023-07-30T04:00:31;15.55;;;4.28;;
51824;SDS011;37879;52.986;6.282;2023-07-30T04:02:57;17.65;;;4.22;;
51824;SDS011;37879;52.986;6.282;2023-07-30T04:05:23;11.02;;;4.13;;
51824;SDS011;37879;52.986;6.282;2023-07-30T04:07:49;14.55;;;4.55;;
51824;SDS011;37879;52.986;6.282;2023-07-30T04:10:14;20.30;;;5.47;;
51824;SDS011;37879;52.986;6.282;2023-07-30T04:12:40;16.83;;;4.55;;
51824;SDS011;37879;52.986;6.282;2023-07-30T04:15:06;12.13;;;4.15;;
51824;SDS011;37879;52.986;6.282;2023-07-30T04:17:32;12.75;;;4.20;;
51824;SDS011;37879;52.986;6.282;2023-07-30T04:19:57;16.27;;;4.30;;
51824;SDS011;37879;52.986;6.282;2023-07-30T04:22:23;16.23;;;3.88;;
51824;SDS011;37879;52.986;6.282;2023-07-30T04:24:49;11.52;;;3.90;;
51824;SDS011;37879;52.986;6.282;2023-07-30T04:27:14;12.75;;;4.18;;
51824;SDS011;37879;52.986;6.282;2023-07-30T04:29:40;18.73;;;5.40;;
51824;SDS011;37879;52.986;6.282;2023-07-30T04:32:06;11.80;;;2.95;;
51824;SDS011;37879;52.986;6.282;2023-07-30T04:34:35;17.17;;;4.68;;
51824;SDS011;37879;52.986;6.282;2023-07-30T04:37:00;15.27;;;4.20;;
51824;SDS011;37879;52.986;6.282;2023-07-30T04:39:27;11.45;;;3.35;;
51824;SDS011;37879;52.986;6.282;2023-07-30T04:41:55;16.45;;;5.07;;
51824;SDS011;37879;52.986;6.282;2023-07-30T04:44:20;16.13;;;4.07;;
51824;SDS011;37879;52.986;6.282;2023-07-30T04:46:46;12.70;;;4.15;;
51824;SDS011;37879;52.986;6.282;2023-07-30T04:49:11;24.13;;;4.45;;
51824;SDS011;37879;52.986;6.282;2023-07-30T04:51:37;8.63;;;3.53;;
51824;SDS011;37879;52.986;6.282;2023-07-30T04:54:03;12.82;;;4.30;;
51824;SDS011;37879;52.986;6.282;2023-07-30T04:56:29;11.57;;;4.38;;
51824;SDS011;37879;52.986;6.282;2023-07-30T04:58:54;14.73;;;4.00;;
51824;SDS011;37879;52.986;6.282;2023-07-30T05:01:20;11.38;;;4.30;;
51824;SDS011;37879;52.986;6.282;2023-07-30T05:03:46;11.63;;;4.35;;
51824;SDS011;37879;52.986;6.282;2023-07-30T05:06:11;13.68;;;3.70;;
51824;SDS011;37879;52.986;6.282;2023-07-30T05:08:37;10.93;;;4.07;;
51824;SDS011;37879;52.986;6.282;2023-07-30T05:11:02;14.13;;;4.22;;
51824;SDS011;37879;52.986;6.282;2023-07-30T05:13:28;12.82;;;3.45;;
51824;SDS011;37879;52.986;6.282;2023-07-30T05:15:53;15.00;;;4.03;;
51824;SDS011;37879;52.986;6.282;2023-07-30T05:18:19;13.68;;;3.53;;
51824;SDS011;37879;52.986;6.282;2023-07-30T05:20:48;13.68;;;4.00;;
51824;SDS011;37879;52.986;6.282;2023-07-30T05:23:14;10.07;;;3.70;;
51824;SDS011;37879;52.986;6.282;2023-07-30T05:25:40;10.85;;;3.83;;
51824;SDS011;37879;52.986;6.282;2023-07-30T05:28:05;12.48;;;3.75;;
51824;SDS011;37879;52.986;6.282;2023-07-30T05:30:31;13.52;;;4.07;;
51824;SDS011;37879;52.986;6.282;2023-07-30T05:32:56;12.90;;;3.65;;
51824;SDS011;37879;52.986;6.282;2023-07-30T05:35:22;14.73;;;4.00;;
51824;SDS011;37879;52.986;6.282;2023-07-30T05:37:47;9.27;;;3.47;;
51824;SDS011;37879;52.986;6.282;2023-07-30T05:40:13;16.63;;;4.30;;
51824;SDS011;37879;52.986;6.282;2023-07-30T05:42:39;10.50;;;3.65;;
51824;SDS011;37879;52.986;6.282;2023-07-30T05:45:05;11.68;;;3.88;;
51824;SDS011;37879;52.986;6.282;2023-07-30T05:47:31;11.57;;;3.42;;
51824;SDS011;37879;52.986;6.282;2023-07-30T05:49:57;12.32;;;4.47;;
51824;SDS011;37879;52.986;6.282;2023-07-30T05:52:22;14.05;;;4.55;;
51824;SDS011;37879;52.986;6.282;2023-07-30T05:54:48;9.10;;;3.35;;
51824;SDS011;37879;52.986;6.282;2023-07-30T05:57:14;15.73;;;4.15;;
51824;SDS011;37879;52.986;6.282;2023-07-30T05:59:39;13.80;;;3.38;;
51824;SDS011;37879;52.986;6.282;2023-07-30T06:02:05;12.07;;;3.75;;
51824;SDS011;37879;52.986;6.282;2023-07-30T06:04:31;13.57;;;3.85;;
51824;SDS011;37879;52.986;6.282;2023-07-30T06:06:58;14.70;;;3.70;;
51824;SDS011;37879;52.986;6.282;2023-07-30T06:09:25;8.35;;;2.75;;
51824;SDS011;37879;52.986;6.282;2023-07-30T06:11:51;11.88;;;3.20;;
51824;SDS011;37879;52.986;6.282;2023-07-30T06:14:17;13.70;;;3.72;;
51824;SDS011;37879;52.986;6.282;2023-07-30T06:16:42;11.95;;;4.82;;
51824;SDS011;37879;52.986;6.282;2023-07-30T06:19:09;11.48;;;2.70;;
51824;SDS011;37879;52.986;6.282;2023-07-30T06:21:35;11.82;;;4.18;;
51824;SDS011;37879;52.986;6.282;2023-07-30T06:24:00;20.35;;;5.30;;
51824;SDS011;37879;52.986;6.282;2023-07-30T06:26:26;13.52;;;4.53;;
51824;SDS011;37879;52.986;6.282;2023-07-30T06:28:52;14.38;;;4.70;;
51824;SDS011;37879;52.986;6.282;2023-07-30T06:31:17;13.27;;;3.85;;
51824;SDS011;37879;52.986;6.282;2023-07-30T06:33:43;11.20;;;3.53;;
51824;SDS011;37879;52.986;6.282;2023-07-30T06:36:08;10.35;;;3.25;;
51824;SDS011;37879;52.986;6.282;2023-07-30T06:38:34;12.65;;;3.70;;
51824;SDS011;37879;52.986;6.282;2023-07-30T06:41:00;12.45;;;3.67;;
51824;SDS011;37879;52.986;6.282;2023-07-30T06:43:25;9.32;;;3.75;;
51824;SDS011;37879;52.986;6.282;2023-07-30T06:45:51;8.75;;;2.95;;
51824;SDS011;37879;52.986;6.282;2023-07-30T06:48:18;9.80;;;3.83;;
51824;SDS011;37879;52.986;6.282;2023-07-30T06:50:44;12.23;;;3.35;;
51824;SDS011;37879;52.986;6.282;2023-07-30T06:53:09;13.40;;;4.07;;
51824;SDS011;37879;52.986;6.282;2023-07-30T06:55:35;9.27;;;2.95;;
51824;SDS011;37879;52.986;6.282;2023-07-30T06:58:01;6.30;;;2.55;;
51824;SDS011;37879;52.986;6.282;2023-07-30T07:00:26;11.30;;;2.67;;
51824;SDS011;37879;52.986;6.282;2023-07-30T07:02:52;13.52;;;3.63;;
51824;SDS011;37879;52.986;6.282;2023-07-30T07:05:18;9.13;;;3.03;;
51824;SDS011;37879;52.986;6.282;2023-07-30T07:07:44;10.45;;;3.05;;
51824;SDS011;37879;52.986;6.282;2023-07-30T07:10:10;10.55;;;2.78;;
51824;SDS011;37879;52.986;6.282;2023-07-30T07:12:36;11.63;;;2.72;;
51824;SDS011;37879;52.986;6.282;2023-07-30T07:15:03;9.43;;;2.75;;
51824;SDS011;37879;52.986;6.282;2023-07-30T07:17:29;7.00;;;2.80;;
51824;SDS011;37879;52.986;6.282;2023-07-30T07:19:55;11.38;;;2.90;;
51824;SDS011;37879;52.986;6.282;2023-07-30T07:22:21;8.27;;;3.08;;
51824;SDS011;37879;52.986;6.282;2023-07-30T07:24:47;8.50;;;2.40;;
51824;SDS011;37879;52.986;6.282;2023-07-30T07:27:13;8.50;;;2.33;;
51824;SDS011;37879;52.986;6.282;2023-07-30T07:29:38;14.52;;;3.63;;
51824;SDS011;37879;52.986;6.282;2023-07-30T07:32:04;11.32;;;3.33;;
51824;SDS011;37879;52.986;6.282;2023-07-30T07:34:30;9.57;;;2.60;;
51824;SDS011;37879;52.986;6.282;2023-07-30T07:36:56;8.55;;;2.33;;
51824;SDS011;37879;52.986;6.282;2023-07-30T07:39:21;10.63;;;2.50;;
51824;SDS011;37879;52.986;6.282;2023-07-30T07:41:47;13.48;;;2.78;;
51824;SDS011;37879;52.986;6.282;2023-07-30T07:44:12;6.85;;;2.45;;
51824;SDS011;37879;52.986;6.282;2023-07-30T07:46:38;11.60;;;2.97;;
51824;SDS011;37879;52.986;6.282;2023-07-30T07:49:04;9.27;;;2.00;;
51824;SDS011;37879;52.986;6.282;2023-07-30T07:51:29;8.60;;;2.42;;
51824;SDS011;37879;52.986;6.282;2023-07-30T07:53:55;9.70;;;2.25;;
51824;SDS011;37879;52.986;6.282;2023-07-30T07:56:21;6.03;;;1.70;;
51824;SDS011;37879;52.986;6.282;2023-07-30T07:58:47;8.73;;;1.83;;
51824;SDS011;37879;52.986;6.282;2023-07-30T08:01:12;6.43;;;1.77;;
51824;SDS011;37879;52.986;6.282;2023-07-30T08:03:38;4.82;;;1.63;;
51824;SDS011;37879;52.986;6.282;2023-07-30T08:06:03;10.23;;;1.70;;
51824;SDS011;37879;52.986;6.282;2023-07-30T08:08:30;8.18;;;2.05;;
51824;SDS011;37879;52.986;6.282;2023-07-30T08:10:56;7.55;;;1.98;;
51824;SDS011;37879;52.986;6.282;2023-07-30T08:13:21;7.63;;;1.73;;
51824;SDS011;37879;52.986;6.282;2023-07-30T08:15:47;6.53;;;1.95;;
51824;SDS011;37879;52.986;6.282;2023-07-30T08:18:13;7.88;;;1.75;;
51824;SDS011;37879;52.986;6.282;2023-07-30T08:20:39;6.15;;;1.67;;
51824;SDS011;37879;52.986;6.282;2023-07-30T08:23:04;5.80;;;1.63;;
51824;SDS011;37879;52.986;6.282;2023-07-30T08:25:30;4.90;;;1.67;;
51824;SDS011;37879;52.986;6.282;2023-07-30T08:27:56;5.97;;;1.48;;
51824;SDS011;37879;52.986;6.282;2023-07-30T08:30:21;4.50;;;1.33;;
51824;SDS011;37879;52.986;6.282;2023-07-30T08:32:47;5.45;;;1.58;;
51824;SDS011;37879;52.986;6.282;2023-07-30T08:35:12;5.90;;;1.90;;
51824;SDS011;37879;52.986;6.282;2023-07-30T08:37:38;9.15;;;1.95;;
51824;SDS011;37879;52.986;6.282;2023-07-30T08:40:04;5.88;;;1.23;;
51824;SDS011;37879;52.986;6.282;2023-07-30T08:42:30;5.35;;;1.92;;
51824;SDS011;37879;52.986;6.282;2023-07-30T08:44:56;7.55;;;2.10;;
51824;SDS011;37879;52.986;6.282;2023-07-30T08:47:21;8.00;;;1.65;;
51824;SDS011;37879;52.986;6.282;2023-07-30T08:49:47;6.50;;;2.00;;
51824;SDS011;37879;52.986;6.282;2023-07-30T08:52:12;5.97;;;1.92;;
51824;SDS011;37879;52.986;6.282;2023-07-30T08:54:41;9.65;;;2.30;;
51824;SDS011;37879;52.986;6.282;2023-07-30T08:57:08;7.43;;;1.65;;
51824;SDS011;37879;52.986;6.282;2023-07-30T08:59:47;7.63;;;2.20;;
51824;SDS011;37879;52.986;6.282;2023-07-30T09:02:19;7.35;;;1.95;;
51824;SDS011;37879;52.986;6.282;2023-07-30T09:04:56;8.35;;;1.88;;
51824;SDS011;37879;52.986;6.282;2023-07-30T09:07:25;10.18;;;2.30;;
51824;SDS011;37879;52.986;6.282;2023-07-30T09:09:50;6.70;;;1.13;;
51824;SDS011;37879;52.986;6.282;2023-07-30T09:12:16;4.07;;;1.52;;
51824;SDS011;37879;52.986;6.282;2023-07-30T09:14:42;7.10;;;1.48;;
51824;SDS011;37879;52.986;6.282;2023-07-30T09:17:16;6.70;;;1.60;;
51824;SDS011;37879;52.986;6.282;2023-07-30T09:19:44;4.40;;;1.10;;
51824;SDS011;37879;52.986;6.282;2023-07-30T09:22:12;4.30;;;1.50;;
51824;SDS011;37879;52.986;6.282;2023-07-30T09:24:47;5.82;;;1.88;;
51824;SDS011;37879;52.986;6.282;2023-07-30T09:27:12;6.50;;;1.42;;
51824;SDS011;37879;52.986;6.282;2023-07-30T09:29:38;3.67;;;1.00;;
51824;SDS011;37879;52.986;6.282;2023-07-30T09:32:16;2.58;;;0.90;;
51824;SDS011;37879;52.986;6.282;2023-07-30T09:34:42;5.60;;;1.08;;
51824;SDS011;37879;52.986;6.282;2023-07-30T09:37:10;4.68;;;1.15;;
51824;SDS011;37879;52.986;6.282;2023-07-30T09:39:37;8.57;;;1.83;;
51824;SDS011;37879;52.986;6.282;2023-07-30T09:42:03;4.75;;;1.30;;
51824;SDS011;37879;52.986;6.282;2023-07-30T09:44:29;3.05;;;0.95;;
51824;SDS011;37879;52.986;6.282;2023-07-30T09:46:58;5.25;;;1.10;;
51824;SDS011;37879;52.986;6.282;2023-07-30T09:49:24;5.45;;;1.30;;
51824;SDS011;37879;52.986;6.282;2023-07-30T09:51:50;5.68;;;1.63;;
51824;SDS011;37879;52.986;6.282;2023-07-30T09:54:16;4.13;;;1.23;;
51824;SDS011;37879;52.986;6.282;2023-07-30T09:56:42;5.40;;;1.00;;
51824;SDS011;37879;52.986;6.282;2023-07-30T09:59:08;2.78;;;1.10;;
51824;SDS011;37879;52.986;6.282;2023-07-30T10:01:36;6.78;;;1.10;;
51824;SDS011;37879;52.986;6.282;2023-07-30T10:04:08;5.18;;;1.40;;
51824;SDS011;37879;52.986;6.282;2023-07-30T10:06:36;6.85;;;1.30;;
51824;SDS011;37879;52.986;6.282;2023-07-30T10:09:05;4.72;;;1.50;;
51824;SDS011;37879;52.986;6.282;2023-07-30T10:11:34;5.05;;;1.85;;
51824;SDS011;37879;52.986;6.282;2023-07-30T10:14:01;5.60;;;1.52;;
51824;SDS011;37879;52.986;6.282;2023-07-30T10:16:30;3.67;;;1.48;;
51824;SDS011;37879;52.986;6.282;2023-07-30T10:18:56;6.88;;;1.60;;
51824;SDS011;37879;52.986;6.282;2023-07-30T10:21:23;4.80;;;1.33;;
51824;SDS011;37879;52.986;6.282;2023-07-30T10:24:01;7.10;;;1.95;;
51824;SDS011;37879;52.986;6.282;2023-07-30T10:26:32;6.25;;;1.65;;
51824;SDS011;37879;52.986;6.282;2023-07-30T10:29:10;5.88;;;1.95;;
51824;SDS011;37879;52.986;6.282;2023-07-30T10:31:40;6.25;;;1.77;;
51824;SDS011;37879;52.986;6.282;2023-07-30T10:34:13;4.95;;;1.77;;
51824;SDS011;37879;52.986;6.282;2023-07-30T10:36:43;8.68;;;2.45;;
51824;SDS011;37879;52.986;6.282;2023-07-30T10:41:45;6.68;;;1.70;;
51824;SDS011;37879;52.986;6.282;2023-07-30T10:46:48;12.13;;;2.13;;
51824;SDS011;37879;52.986;6.282;2023-07-30T10:49:13;4.45;;;1.58;;
51824;SDS011;37879;52.986;6.282;2023-07-30T10:51:39;7.57;;;1.83;;
51824;SDS011;37879;52.986;6.282;2023-07-30T10:54:08;4.40;;;1.40;;
51824;SDS011;37879;52.986;6.282;2023-07-30T10:56:34;4.68;;;1.77;;
51824;SDS011;37879;52.986;6.282;2023-07-30T10:59:03;8.25;;;1.77;;
51824;SDS011;37879;52.986;6.282;2023-07-30T11:01:39;6.80;;;1.65;;
51824;SDS011;37879;52.986;6.282;2023-07-30T11:04:06;4.95;;;1.63;;
51824;SDS011;37879;52.986;6.282;2023-07-30T11:06:33;5.07;;;1.70;;
51824;SDS011;37879;52.986;6.282;2023-07-30T11:08:59;4.97;;;1.35;;
51824;SDS011;37879;52.986;6.282;2023-07-30T11:11:25;6.20;;;2.42;;
51824;SDS011;37879;52.986;6.282;2023-07-30T11:13:51;8.55;;;1.55;;
51824;SDS011;37879;52.986;6.282;2023-07-30T11:16:16;8.90;;;1.65;;
51824;SDS011;37879;52.986;6.282;2023-07-30T11:18:43;9.43;;;2.10;;
51824;SDS011;37879;52.986;6.282;2023-07-30T11:21:10;4.05;;;1.75;;
51824;SDS011;37879;52.986;6.282;2023-07-30T11:23:37;5.72;;;1.63;;
51824;SDS011;37879;52.986;6.282;2023-07-30T11:26:05;4.80;;;1.60;;
51824;SDS011;37879;52.986;6.282;2023-07-30T11:31:05;7.07;;;1.20;;
51824;SDS011;37879;52.986;6.282;2023-07-30T11:33:31;4.35;;;1.27;;
51824;SDS011;37879;52.986;6.282;2023-07-30T11:36:00;4.47;;;1.38;;
51824;SDS011;37879;52.986;6.282;2023-07-30T11:38:26;7.90;;;1.83;;
51824;SDS011;37879;52.986;6.282;2023-07-30T11:40:53;7.80;;;1.95;;
51824;SDS011;37879;52.986;6.282;2023-07-30T11:43:23;3.85;;;1.60;;
51824;SDS011;37879;52.986;6.282;2023-07-30T11:45:49;4.20;;;1.30;;
51824;SDS011;37879;52.986;6.282;2023-07-30T11:48:35;5.80;;;1.40;;
51824;SDS011;37879;52.986;6.282;2023-07-30T11:51:01;7.70;;;1.67;;
51824;SDS011;37879;52.986;6.282;2023-07-30T11:53:43;2.67;;;1.38;;
51824;SDS011;37879;52.986;6.282;2023-07-30T11:56:18;4.35;;;1.23;;
51824;SDS011;37879;52.986;6.282;2023-07-30T11:58:48;6.38;;;1.77;;
51824;SDS011;37879;52.986;6.282;2023-07-30T12:01:15;5.68;;;1.70;;
51824;SDS011;37879;52.986;6.282;2023-07-30T12:03:41;6.32;;;2.00;;
51824;SDS011;37879;52.986;6.282;2023-07-30T12:06:07;6.18;;;1.70;;
51824;SDS011;37879;52.986;6.282;2023-07-30T12:08:34;5.82;;;1.70;;
51824;SDS011;37879;52.986;6.282;2023-07-30T12:11:04;7.72;;;1.48;;
51824;SDS011;37879;52.986;6.282;2023-07-30T12:13:31;4.45;;;1.30;;
51824;SDS011;37879;52.986;6.282;2023-07-30T12:15:57;5.22;;;1.35;;
51824;SDS011;37879;52.986;6.282;2023-07-30T12:18:23;6.65;;;1.40;;
51824;SDS011;37879;52.986;6.282;2023-07-30T12:20:50;4.70;;;1.25;;
51824;SDS011;37879;52.986;6.282;2023-07-30T12:23:18;11.35;;;2.78;;
51824;SDS011;37879;52.986;6.282;2023-07-30T12:25:45;9.32;;;1.92;;
51824;SDS011;37879;52.986;6.282;2023-07-30T12:28:11;14.40;;;2.78;;
51824;SDS011;37879;52.986;6.282;2023-07-30T12:30:37;7.85;;;2.42;;
51824;SDS011;37879;52.986;6.282;2023-07-30T12:33:03;7.00;;;1.90;;
51824;SDS011;37879;52.986;6.282;2023-07-30T12:35:32;7.47;;;2.22;;
51824;SDS011;37879;52.986;6.282;2023-07-30T12:37:59;9.82;;;1.95;;
51824;SDS011;37879;52.986;6.282;2023-07-30T12:40:25;6.32;;;1.98;;
51824;SDS011;37879;52.986;6.282;2023-07-30T12:42:51;9.55;;;2.00;;
51824;SDS011;37879;52.986;6.282;2023-07-30T12:45:17;4.75;;;2.05;;
51824;SDS011;37879;52.986;6.282;2023-07-30T12:47:43;9.02;;;2.45;;
51824;SDS011;37879;52.986;6.282;2023-07-30T12:50:10;9.60;;;2.92;;
51824;SDS011;37879;52.986;6.282;2023-07-30T12:52:36;7.80;;;2.70;;
51824;SDS011;37879;52.986;6.282;2023-07-30T12:55:02;9.13;;;2.20;;
51824;SDS011;37879;52.986;6.282;2023-07-30T12:57:29;7.65;;;1.80;;
51824;SDS011;37879;52.986;6.282;2023-07-30T12:59:55;7.78;;;2.15;;
51824;SDS011;37879;52.986;6.282;2023-07-30T13:02:21;6.43;;;2.03;;
51824;SDS011;37879;52.986;6.282;2023-07-30T13:04:47;4.40;;;1.30;;
51824;SDS011;37879;52.986;6.282;2023-07-30T13:07:13;3.80;;;1.10;;
51824;SDS011;37879;52.986;6.282;2023-07-30T13:09:39;4.47;;;2.00;;
51824;SDS011;37879;52.986;6.282;2023-07-30T13:12:04;3.88;;;1.38;;
51824;SDS011;37879;52.986;6.282;2023-07-30T13:14:31;4.38;;;1.23;;
51824;SDS011;37879;52.986;6.282;2023-07-30T13:16:56;7.80;;;1.90;;
51824;SDS011;37879;52.986;6.282;2023-07-30T13:19:22;9.05;;;1.73;;
51824;SDS011;37879;52.986;6.282;2023-07-30T13:21:48;8.48;;;2.45;;
51824;SDS011;37879;52.986;6.282;2023-07-30T13:24:13;6.47;;;1.80;;
51824;SDS011;37879;52.986;6.282;2023-07-30T13:26:39;3.72;;;1.95;;
51824;SDS011;37879;52.986;6.282;2023-07-30T13:29:04;6.28;;;1.10;;
51824;SDS011;37879;52.986;6.282;2023-07-30T13:31:30;6.60;;;1.63;;
51824;SDS011;37879;52.986;6.282;2023-07-30T13:33:56;6.10;;;1.65;;
51824;SDS011;37879;52.986;6.282;2023-07-30T13:36:21;4.05;;;1.55;;
51824;SDS011;37879;52.986;6.282;2023-07-30T13:38:47;8.55;;;2.20;;
51824;SDS011;37879;52.986;6.282;2023-07-30T13:41:13;6.38;;;1.98;;
51824;SDS011;37879;52.986;6.282;2023-07-30T13:43:39;7.15;;;1.58;;
51824;SDS011;37879;52.986;6.282;2023-07-30T13:46:04;4.50;;;1.05;;
51824;SDS011;37879;52.986;6.282;2023-07-30T13:48:30;5.55;;;1.35;;
51824;SDS011;37879;52.986;6.282;2023-07-30T13:50:56;6.53;;;1.65;;
51824;SDS011;37879;52.986;6.282;2023-07-30T13:53:22;4.70;;;1.30;;
51824;SDS011;37879;52.986;6.282;2023-07-30T13:55:48;4.75;;;1.60;;
51824;SDS011;37879;52.986;6.282;2023-07-30T13:58:14;5.93;;;1.30;;
51824;SDS011;37879;52.986;6.282;2023-07-30T14:00:40;5.80;;;1.38;;
51824;SDS011;37879;52.986;6.282;2023-07-30T14:03:07;3.97;;;1.27;;
51824;SDS011;37879;52.986;6.282;2023-07-30T14:05:33;6.72;;;1.60;;
51824;SDS011;37879;52.986;6.282;2023-07-30T14:07:59;7.28;;;1.75;;
51824;SDS011;37879;52.986;6.282;2023-07-30T14:10:25;8.35;;;2.08;;
51824;SDS011;37879;52.986;6.282;2023-07-30T14:12:52;5.20;;;1.38;;
51824;SDS011;37879;52.986;6.282;2023-07-30T14:15:18;5.40;;;1.27;;
51824;SDS011;37879;52.986;6.282;2023-07-30T14:17:43;4.55;;;1.45;;
51824;SDS011;37879;52.986;6.282;2023-07-30T14:20:09;6.40;;;1.58;;
51824;SDS011;37879;52.986;6.282;2023-07-30T14:22:35;6.13;;;1.23;;
51824;SDS011;37879;52.986;6.282;2023-07-30T14:25:01;6.22;;;1.63;;
51824;SDS011;37879;52.986;6.282;2023-07-30T14:27:27;4.65;;;1.25;;
51824;SDS011;37879;52.986;6.282;2023-07-30T14:29:53;3.40;;;0.85;;
51824;SDS011;37879;52.986;6.282;2023-07-30T14:32:22;5.38;;;1.38;;
51824;SDS011;37879;52.986;6.282;2023-07-30T14:34:48;3.17;;;0.90;;
51824;SDS011;37879;52.986;6.282;2023-07-30T14:37:14;5.72;;;1.17;;
51824;SDS011;37879;52.986;6.282;2023-07-30T14:39:40;3.05;;;1.10;;
51824;SDS011;37879;52.986;6.282;2023-07-30T14:42:09;5.38;;;1.02;;
51824;SDS011;37879;52.986;6.282;2023-07-30T14:44:35;4.18;;;1.83;;